sensor_id;sensor_type;location;lat;lon;timestamp;temperature;humidity
4615;DHT22;2320;51.362;6.946;2022-10-19T00:02:16;8.30;99.90
4615;DHT22;2320;51.362;6.946;2022-10-19T00:04:41;8.30;99.90
4615;DHT22;2320;51.362;6.946;2022-10-19T00:07:07;8.30;99.90
4615;DHT22;2320;51.362;6.946;2022-10-19T00:09:32;8.20;99.90
4615;DHT22;2320;51.362;6.946;2022-10-19T00:11:58;8.20;99.90
4615;DHT22;2320;51.362;6.946;2022-10-19T00:14:23;8.20;99.90
4615;DHT22;2320;51.362;6.946;2022-10-19T00:16:50;8.20;99.90
4615;DHT22;2320;51.362;6.946;2022-10-19T00:19:17;8.20;99.90
4615;DHT22;2320;51.362;6.946;2022-10-19T00:21:43;8.20;99.90
4615;DHT22;2320;51.362;6.946;2022-10-19T00:24:09;8.10;99.90
4615;DHT22;2320;51.362;6.946;2022-10-19T00:26:35;8.20;99.90
4615;DHT22;2320;51.362;6.946;2022-10-19T00:29:00;8.10;99.90
4615;DHT22;2320;51.362;6.946;2022-10-19T00:31:26;8.10;99.90
4615;DHT22;2320;51.362;6.946;2022-10-19T00:33:52;8.00;99.90
4615;DHT22;2320;51.362;6.946;2022-10-19T00:38:46;7.90;99.90
4615;DHT22;2320;51.362;6.946;2022-10-19T00:41:11;7.90;99.90
4615;DHT22;2320;51.362;6.946;2022-10-19T00:43:54;8.00;99.90
4615;DHT22;2320;51.362;6.946;2022-10-19T00:46:20;8.10;99.90
4615;DHT22;2320;51.362;6.946;2022-10-19T00:48:46;8.00;99.90
4615;DHT22;2320;51.362;6.946;2022-10-19T00:51:11;8.10;99.90
4615;DHT22;2320;51.362;6.946;2022-10-19T00:53:37;8.20;99.90
4615;DHT22;2320;51.362;6.946;2022-10-19T00:56:04;8.20;99.90
4615;DHT22;2320;51.362;6.946;2022-10-19T00:58:31;8.20;99.90
4615;DHT22;2320;51.362;6.946;2022-10-19T01:00:58;8.20;99.90
4615;DHT22;2320;51.362;6.946;2022-10-19T01:03:25;8.20;99.90
4615;DHT22;2320;51.362;6.946;2022-10-19T01:05:51;8.20;99.90
4615;DHT22;2320;51.362;6.946;2022-10-19T01:08:17;8.20;99.90
4615;DHT22;2320;51.362;6.946;2022-10-19T01:18:43;8.30;99.90
4615;DHT22;2320;51.362;6.946;2022-10-19T01:21:17;8.20;99.90
4615;DHT22;2320;51.362;6.946;2022-10-19T01:23:52;8.20;99.90
4615;DHT22;2320;51.362;6.946;2022-10-19T01:34:08;8.20;99.90
4615;DHT22;2320;51.362;6.946;2022-10-19T01:41:50;8.10;99.90
4615;DHT22;2320;51.362;6.946;2022-10-19T01:44:31;8.10;99.90
4615;DHT22;2320;51.362;6.946;2022-10-19T01:47:00;8.10;99.90
4615;DHT22;2320;51.362;6.946;2022-10-19T01:51:58;8.00;99.90
4615;DHT22;2320;51.362;6.946;2022-10-19T01:54:24;8.00;99.90
4615;DHT22;2320;51.362;6.946;2022-10-19T01:56:51;8.00;99.90
4615;DHT22;2320;51.362;6.946;2022-10-19T01:59:18;8.00;99.90
4615;DHT22;2320;51.362;6.946;2022-10-19T02:01:45;7.90;99.90
4615;DHT22;2320;51.362;6.946;2022-10-19T02:04:12;7.90;99.90
4615;DHT22;2320;51.362;6.946;2022-10-19T02:06:39;7.90;99.90
4615;DHT22;2320;51.362;6.946;2022-10-19T02:09:05;8.00;99.90
4615;DHT22;2320;51.362;6.946;2022-10-19T02:11:31;7.90;99.90
4615;DHT22;2320;51.362;6.946;2022-10-19T02:14:02;7.90;99.90
4615;DHT22;2320;51.362;6.946;2022-10-19T02:16:33;7.80;99.90
4615;DHT22;2320;51.362;6.946;2022-10-19T02:19:01;7.80;99.90
4615;DHT22;2320;51.362;6.946;2022-10-19T02:21:27;7.70;99.90
4615;DHT22;2320;51.362;6.946;2022-10-19T02:23:53;7.70;99.90
4615;DHT22;2320;51.362;6.946;2022-10-19T02:26:18;7.70;99.90
4615;DHT22;2320;51.362;6.946;2022-10-19T02:28:44;7.60;99.90
4615;DHT22;2320;51.362;6.946;2022-10-19T02:31:10;7.60;99.90
4615;DHT22;2320;51.362;6.946;2022-10-19T02:33:36;7.50;99.90
4615;DHT22;2320;51.362;6.946;2022-10-19T02:36:02;7.60;99.90
4615;DHT22;2320;51.362;6.946;2022-10-19T02:38:27;7.60;99.90
4615;DHT22;2320;51.362;6.946;2022-10-19T02:40:59;7.60;99.90
4615;DHT22;2320;51.362;6.946;2022-10-19T02:43:25;7.60;99.90
4615;DHT22;2320;51.362;6.946;2022-10-19T02:45:53;7.70;99.90
4615;DHT22;2320;51.362;6.946;2022-10-19T02:48:21;7.60;99.90
4615;DHT22;2320;51.362;6.946;2022-10-19T02:50:47;7.70;99.90
4615;DHT22;2320;51.362;6.946;2022-10-19T02:53:13;7.80;99.90
4615;DHT22;2320;51.362;6.946;2022-10-19T02:55:39;7.70;99.90
4615;DHT22;2320;51.362;6.946;2022-10-19T02:58:05;7.80;99.90
4615;DHT22;2320;51.362;6.946;2022-10-19T03:00:30;7.80;99.90
4615;DHT22;2320;51.362;6.946;2022-10-19T03:02:56;7.70;99.90
4615;DHT22;2320;51.362;6.946;2022-10-19T03:05:21;7.70;99.90
4615;DHT22;2320;51.362;6.946;2022-10-19T03:07:47;7.70;99.90
4615;DHT22;2320;51.362;6.946;2022-10-19T03:10:12;7.60;99.90
4615;DHT22;2320;51.362;6.946;2022-10-19T03:12:38;7.60;99.90
4615;DHT22;2320;51.362;6.946;2022-10-19T03:15:03;7.60;99.90
4615;DHT22;2320;51.362;6.946;2022-10-19T03:17:29;7.60;99.90
4615;DHT22;2320;51.362;6.946;2022-10-19T03:19:55;7.40;99.90
4615;DHT22;2320;51.362;6.946;2022-10-19T03:22:20;7.50;99.90
4615;DHT22;2320;51.362;6.946;2022-10-19T03:24:46;7.50;99.90
4615;DHT22;2320;51.362;6.946;2022-10-19T03:27:11;7.60;99.90
4615;DHT22;2320;51.362;6.946;2022-10-19T03:29:36;7.50;99.90
4615;DHT22;2320;51.362;6.946;2022-10-19T03:32:02;7.50;99.90
4615;DHT22;2320;51.362;6.946;2022-10-19T03:34:28;7.50;99.90
4615;DHT22;2320;51.362;6.946;2022-10-19T03:36:53;7.50;99.90
4615;DHT22;2320;51.362;6.946;2022-10-19T03:39:20;7.60;99.90
4615;DHT22;2320;51.362;6.946;2022-10-19T03:41:45;7.50;99.90
4615;DHT22;2320;51.362;6.946;2022-10-19T03:44:11;7.70;99.90
4615;DHT22;2320;51.362;6.946;2022-10-19T03:46:37;7.70;99.90
4615;DHT22;2320;51.362;6.946;2022-10-19T03:49:03;7.70;99.90
4615;DHT22;2320;51.362;6.946;2022-10-19T03:51:29;7.70;99.90
4615;DHT22;2320;51.362;6.946;2022-10-19T03:53:56;7.70;99.90
4615;DHT22;2320;51.362;6.946;2022-10-19T03:56:23;7.70;99.90
4615;DHT22;2320;51.362;6.946;2022-10-19T03:58:49;7.70;99.90
4615;DHT22;2320;51.362;6.946;2022-10-19T04:01:16;7.70;99.90
4615;DHT22;2320;51.362;6.946;2022-10-19T04:03:42;7.60;99.90
4615;DHT22;2320;51.362;6.946;2022-10-19T04:06:09;7.60;99.90
4615;DHT22;2320;51.362;6.946;2022-10-19T04:08:35;7.50;99.90
4615;DHT22;2320;51.362;6.946;2022-10-19T04:11:02;7.50;99.90
4615;DHT22;2320;51.362;6.946;2022-10-19T04:13:28;7.60;99.90
4615;DHT22;2320;51.362;6.946;2022-10-19T04:15:53;7.70;99.90
4615;DHT22;2320;51.362;6.946;2022-10-19T04:18:19;7.80;99.90
4615;DHT22;2320;51.362;6.946;2022-10-19T04:20:44;7.80;99.90
4615;DHT22;2320;51.362;6.946;2022-10-19T04:23:10;7.80;99.90
4615;DHT22;2320;51.362;6.946;2022-10-19T04:25:35;7.80;99.90
4615;DHT22;2320;51.362;6.946;2022-10-19T04:28:01;7.80;99.90
4615;DHT22;2320;51.362;6.946;2022-10-19T04:30:26;7.80;99.90
4615;DHT22;2320;51.362;6.946;2022-10-19T04:32:51;7.80;99.90
4615;DHT22;2320;51.362;6.946;2022-10-19T04:35:17;7.80;99.90
4615;DHT22;2320;51.362;6.946;2022-10-19T04:37:42;7.90;99.90
4615;DHT22;2320;51.362;6.946;2022-10-19T04:40:08;7.80;99.90
4615;DHT22;2320;51.362;6.946;2022-10-19T04:42:34;7.80;99.90
4615;DHT22;2320;51.362;6.946;2022-10-19T04:44:59;7.80;99.90
4615;DHT22;2320;51.362;6.946;2022-10-19T04:47:25;7.80;99.90
4615;DHT22;2320;51.362;6.946;2022-10-19T04:49:50;7.70;99.90
4615;DHT22;2320;51.362;6.946;2022-10-19T04:52:16;7.70;99.90
4615;DHT22;2320;51.362;6.946;2022-10-19T04:54:41;7.80;99.90
4615;DHT22;2320;51.362;6.946;2022-10-19T04:57:07;7.70;99.90
4615;DHT22;2320;51.362;6.946;2022-10-19T04:59:32;7.60;99.90
4615;DHT22;2320;51.362;6.946;2022-10-19T05:01:57;7.60;99.90
4615;DHT22;2320;51.362;6.946;2022-10-19T05:04:23;7.60;99.90
4615;DHT22;2320;51.362;6.946;2022-10-19T05:06:48;7.60;99.90
4615;DHT22;2320;51.362;6.946;2022-10-19T05:09:14;7.50;99.90
4615;DHT22;2320;51.362;6.946;2022-10-19T05:11:39;7.50;99.90
4615;DHT22;2320;51.362;6.946;2022-10-19T05:14:05;7.50;99.90
4615;DHT22;2320;51.362;6.946;2022-10-19T05:16:31;7.40;99.90
4615;DHT22;2320;51.362;6.946;2022-10-19T05:18:56;7.50;99.90
4615;DHT22;2320;51.362;6.946;2022-10-19T05:21:23;7.50;99.90
4615;DHT22;2320;51.362;6.946;2022-10-19T05:23:52;7.50;99.90
4615;DHT22;2320;51.362;6.946;2022-10-19T05:26:18;7.50;99.90
4615;DHT22;2320;51.362;6.946;2022-10-19T05:28:48;7.50;99.90
4615;DHT22;2320;51.362;6.946;2022-10-19T05:31:14;7.40;99.90
4615;DHT22;2320;51.362;6.946;2022-10-19T05:33:40;7.40;99.90
4615;DHT22;2320;51.362;6.946;2022-10-19T05:36:17;7.40;99.90
4615;DHT22;2320;51.362;6.946;2022-10-19T05:38:43;7.40;99.90
4615;DHT22;2320;51.362;6.946;2022-10-19T05:41:09;7.10;99.90
4615;DHT22;2320;51.362;6.946;2022-10-19T05:43:35;7.20;99.90
4615;DHT22;2320;51.362;6.946;2022-10-19T05:46:11;7.00;99.90
4615;DHT22;2320;51.362;6.946;2022-10-19T05:48:37;6.90;99.90
4615;DHT22;2320;51.362;6.946;2022-10-19T05:51:03;6.90;99.90
4615;DHT22;2320;51.362;6.946;2022-10-19T05:53:30;6.80;99.90
4615;DHT22;2320;51.362;6.946;2022-10-19T05:55:55;6.90;99.90
4615;DHT22;2320;51.362;6.946;2022-10-19T05:58:21;7.00;99.90
4615;DHT22;2320;51.362;6.946;2022-10-19T06:00:53;6.90;99.90
4615;DHT22;2320;51.362;6.946;2022-10-19T06:03:19;6.90;99.90
4615;DHT22;2320;51.362;6.946;2022-10-19T06:05:46;6.80;99.90
4615;DHT22;2320;51.362;6.946;2022-10-19T06:08:12;6.90;99.90
4615;DHT22;2320;51.362;6.946;2022-10-19T06:10:37;6.90;99.90
4615;DHT22;2320;51.362;6.946;2022-10-19T06:13:03;6.90;99.90
4615;DHT22;2320;51.362;6.946;2022-10-19T06:15:31;7.00;99.90
4615;DHT22;2320;51.362;6.946;2022-10-19T06:17:56;7.10;99.90
4615;DHT22;2320;51.362;6.946;2022-10-19T06:20:22;7.00;99.90
4615;DHT22;2320;51.362;6.946;2022-10-19T06:22:47;7.00;99.90
4615;DHT22;2320;51.362;6.946;2022-10-19T06:25:13;7.10;99.90
4615;DHT22;2320;51.362;6.946;2022-10-19T06:27:38;7.00;99.90
4615;DHT22;2320;51.362;6.946;2022-10-19T06:30:04;7.20;99.90
4615;DHT22;2320;51.362;6.946;2022-10-19T06:32:30;7.20;99.90
4615;DHT22;2320;51.362;6.946;2022-10-19T06:34:56;7.30;99.90
4615;DHT22;2320;51.362;6.946;2022-10-19T06:37:22;7.60;99.90
4615;DHT22;2320;51.362;6.946;2022-10-19T06:39:47;8.00;99.90
4615;DHT22;2320;51.362;6.946;2022-10-19T06:42:13;8.40;99.90
4615;DHT22;2320;51.362;6.946;2022-10-19T06:44:38;8.90;99.90
4615;DHT22;2320;51.362;6.946;2022-10-19T06:47:03;9.30;99.90
4615;DHT22;2320;51.362;6.946;2022-10-19T06:49:29;9.80;99.90
4615;DHT22;2320;51.362;6.946;2022-10-19T06:51:55;10.10;99.90
4615;DHT22;2320;51.362;6.946;2022-10-19T06:54:20;10.80;99.90
4615;DHT22;2320;51.362;6.946;2022-10-19T06:56:46;11.30;99.90
4615;DHT22;2320;51.362;6.946;2022-10-19T06:59:11;11.80;99.90
4615;DHT22;2320;51.362;6.946;2022-10-19T07:01:37;12.30;99.90
4615;DHT22;2320;51.362;6.946;2022-10-19T07:04:03;13.00;99.90
4615;DHT22;2320;51.362;6.946;2022-10-19T07:06:29;13.50;99.90
4615;DHT22;2320;51.362;6.946;2022-10-19T07:08:54;13.90;99.90
4615;DHT22;2320;51.362;6.946;2022-10-19T07:11:20;14.10;99.90
4615;DHT22;2320;51.362;6.946;2022-10-19T07:13:46;14.90;99.90
4615;DHT22;2320;51.362;6.946;2022-10-19T07:16:13;15.20;99.90
4615;DHT22;2320;51.362;6.946;2022-10-19T07:18:39;15.30;99.90
4615;DHT22;2320;51.362;6.946;2022-10-19T07:21:05;15.90;99.90
4615;DHT22;2320;51.362;6.946;2022-10-19T07:23:32;16.30;99.90
4615;DHT22;2320;51.362;6.946;2022-10-19T07:25:57;16.90;99.90
4615;DHT22;2320;51.362;6.946;2022-10-19T07:28:28;17.00;99.90
4615;DHT22;2320;51.362;6.946;2022-10-19T07:30:54;17.70;99.90
4615;DHT22;2320;51.362;6.946;2022-10-19T07:33:19;18.40;99.90
4615;DHT22;2320;51.362;6.946;2022-10-19T07:35:45;18.80;99.90
4615;DHT22;2320;51.362;6.946;2022-10-19T07:38:10;18.90;99.90
4615;DHT22;2320;51.362;6.946;2022-10-19T07:40:36;19.70;99.90
4615;DHT22;2320;51.362;6.946;2022-10-19T07:43:01;20.10;99.90
4615;DHT22;2320;51.362;6.946;2022-10-19T07:45:27;20.20;99.90
4615;DHT22;2320;51.362;6.946;2022-10-19T07:47:52;20.60;99.90
4615;DHT22;2320;51.362;6.946;2022-10-19T07:50:18;21.20;99.90
4615;DHT22;2320;51.362;6.946;2022-10-19T07:52:44;21.30;99.90
4615;DHT22;2320;51.362;6.946;2022-10-19T07:55:09;21.00;99.90
4615;DHT22;2320;51.362;6.946;2022-10-19T07:57:35;21.50;99.90
4615;DHT22;2320;51.362;6.946;2022-10-19T08:00:00;22.10;99.90
4615;DHT22;2320;51.362;6.946;2022-10-19T08:02:26;22.70;99.90
4615;DHT22;2320;51.362;6.946;2022-10-19T08:04:51;22.60;99.90
4615;DHT22;2320;51.362;6.946;2022-10-19T08:07:17;23.20;99.90
4615;DHT22;2320;51.362;6.946;2022-10-19T08:09:42;22.90;99.90
4615;DHT22;2320;51.362;6.946;2022-10-19T08:12:08;22.70;99.90
4615;DHT22;2320;51.362;6.946;2022-10-19T08:14:33;22.30;99.90
4615;DHT22;2320;51.362;6.946;2022-10-19T08:16:59;22.50;99.90
4615;DHT22;2320;51.362;6.946;2022-10-19T08:19:25;22.70;99.90
4615;DHT22;2320;51.362;6.946;2022-10-19T08:21:50;22.50;99.90
4615;DHT22;2320;51.362;6.946;2022-10-19T08:24:16;21.90;99.90
4615;DHT22;2320;51.362;6.946;2022-10-19T08:26:42;21.60;99.90
4615;DHT22;2320;51.362;6.946;2022-10-19T08:31:37;21.70;99.90
4615;DHT22;2320;51.362;6.946;2022-10-19T08:34:03;21.10;99.90
4615;DHT22;2320;51.362;6.946;2022-10-19T08:36:29;20.80;99.90
4615;DHT22;2320;51.362;6.946;2022-10-19T08:38:55;20.80;99.90
4615;DHT22;2320;51.362;6.946;2022-10-19T08:44:16;20.10;99.90
4615;DHT22;2320;51.362;6.946;2022-10-19T08:49:20;20.50;99.90
4615;DHT22;2320;51.362;6.946;2022-10-19T08:51:50;20.80;99.90
4615;DHT22;2320;51.362;6.946;2022-10-19T08:54:17;20.90;99.90
4615;DHT22;2320;51.362;6.946;2022-10-19T08:56:46;20.70;99.90
4615;DHT22;2320;51.362;6.946;2022-10-19T09:06:50;20.70;99.90
4615;DHT22;2320;51.362;6.946;2022-10-19T09:09:17;20.60;99.90
4615;DHT22;2320;51.362;6.946;2022-10-19T09:11:48;20.00;99.90
4615;DHT22;2320;51.362;6.946;2022-10-19T09:14:19;20.10;99.90
4615;DHT22;2320;51.362;6.946;2022-10-19T09:16:46;20.10;99.90
4615;DHT22;2320;51.362;6.946;2022-10-19T09:19:14;19.90;99.90
4615;DHT22;2320;51.362;6.946;2022-10-19T09:21:43;19.90;99.90
4615;DHT22;2320;51.362;6.946;2022-10-19T09:24:26;20.30;99.90
4615;DHT22;2320;51.362;6.946;2022-10-19T09:26:52;20.40;99.90
4615;DHT22;2320;51.362;6.946;2022-10-19T09:32:03;20.10;99.90
4615;DHT22;2320;51.362;6.946;2022-10-19T09:34:31;19.70;99.90
4615;DHT22;2320;51.362;6.946;2022-10-19T09:36:58;20.40;99.90
4615;DHT22;2320;51.362;6.946;2022-10-19T09:39:25;19.80;99.90
4615;DHT22;2320;51.362;6.946;2022-10-19T09:41:58;19.50;99.90
4615;DHT22;2320;51.362;6.946;2022-10-19T09:44:24;19.00;99.90
4615;DHT22;2320;51.362;6.946;2022-10-19T09:46:51;17.90;99.90
4615;DHT22;2320;51.362;6.946;2022-10-19T09:49:18;16.70;99.90
4615;DHT22;2320;51.362;6.946;2022-10-19T09:52:01;16.50;99.90
4615;DHT22;2320;51.362;6.946;2022-10-19T09:54:32;16.30;99.90
4615;DHT22;2320;51.362;6.946;2022-10-19T09:56:58;15.80;99.90
4615;DHT22;2320;51.362;6.946;2022-10-19T09:59:24;15.30;99.90
4615;DHT22;2320;51.362;6.946;2022-10-19T10:02:53;15.20;99.90
4615;DHT22;2320;51.362;6.946;2022-10-19T10:04:55;15.10;99.90
4615;DHT22;2320;51.362;6.946;2022-10-19T10:07:23;15.00;99.90
4615;DHT22;2320;51.362;6.946;2022-10-19T10:09:50;15.10;99.90
4615;DHT22;2320;51.362;6.946;2022-10-19T10:12:16;14.90;99.90
4615;DHT22;2320;51.362;6.946;2022-10-19T10:14:42;14.80;99.90
4615;DHT22;2320;51.362;6.946;2022-10-19T10:17:18;14.80;99.90
4615;DHT22;2320;51.362;6.946;2022-10-19T10:19:49;14.80;99.90
4615;DHT22;2320;51.362;6.946;2022-10-19T10:22:23;14.90;99.90
4615;DHT22;2320;51.362;6.946;2022-10-19T10:24:52;14.90;99.90
4615;DHT22;2320;51.362;6.946;2022-10-19T10:27:28;14.90;99.90
4615;DHT22;2320;51.362;6.946;2022-10-19T10:29:54;14.90;99.90
4615;DHT22;2320;51.362;6.946;2022-10-19T10:32:20;15.10;99.90
4615;DHT22;2320;51.362;6.946;2022-10-19T10:34:56;15.10;99.90
4615;DHT22;2320;51.362;6.946;2022-10-19T10:37:43;15.20;99.90
4615;DHT22;2320;51.362;6.946;2022-10-19T10:40:47;15.00;99.90
4615;DHT22;2320;51.362;6.946;2022-10-19T10:43:05;14.90;99.90
4615;DHT22;2320;51.362;6.946;2022-10-19T10:45:31;15.00;99.90
4615;DHT22;2320;51.362;6.946;2022-10-19T10:47:58;14.90;99.90
4615;DHT22;2320;51.362;6.946;2022-10-19T10:50:31;14.90;99.90
4615;DHT22;2320;51.362;6.946;2022-10-19T10:52:59;14.80;99.90
4615;DHT22;2320;51.362;6.946;2022-10-19T10:55:26;14.90;99.90
4615;DHT22;2320;51.362;6.946;2022-10-19T10:58:03;14.80;99.90
4615;DHT22;2320;51.362;6.946;2022-10-19T11:00:31;14.80;99.90
4615;DHT22;2320;51.362;6.946;2022-10-19T11:05:43;15.00;99.90
4615;DHT22;2320;51.362;6.946;2022-10-19T11:10:54;15.20;99.90
4615;DHT22;2320;51.362;6.946;2022-10-19T11:13:39;15.20;99.90
4615;DHT22;2320;51.362;6.946;2022-10-19T11:16:12;15.30;99.90
4615;DHT22;2320;51.362;6.946;2022-10-19T11:18:46;15.40;99.90
4615;DHT22;2320;51.362;6.946;2022-10-19T11:21:14;15.40;99.90
4615;DHT22;2320;51.362;6.946;2022-10-19T11:23:47;15.50;99.90
4615;DHT22;2320;51.362;6.946;2022-10-19T11:28:54;15.40;99.90
4615;DHT22;2320;51.362;6.946;2022-10-19T11:42:12;15.50;99.90
4615;DHT22;2320;51.362;6.946;2022-10-19T11:44:42;15.50;99.90
4615;DHT22;2320;51.362;6.946;2022-10-19T11:52:11;15.70;99.90
4615;DHT22;2320;51.362;6.946;2022-10-19T11:58:23;15.90;99.90
4615;DHT22;2320;51.362;6.946;2022-10-19T12:00:19;16.00;99.90
4615;DHT22;2320;51.362;6.946;2022-10-19T12:05:21;16.20;99.90
4615;DHT22;2320;51.362;6.946;2022-10-19T12:10:23;15.90;99.90
4615;DHT22;2320;51.362;6.946;2022-10-19T12:12:57;15.90;99.90
4615;DHT22;2320;51.362;6.946;2022-10-19T12:15:37;16.00;99.90
4615;DHT22;2320;51.362;6.946;2022-10-19T12:18:07;16.10;99.90
4615;DHT22;2320;51.362;6.946;2022-10-19T12:20:40;16.20;99.90
4615;DHT22;2320;51.362;6.946;2022-10-19T12:23:27;16.10;99.90
4615;DHT22;2320;51.362;6.946;2022-10-19T12:25:55;16.10;99.90
4615;DHT22;2320;51.362;6.946;2022-10-19T12:28:23;16.10;99.90
4615;DHT22;2320;51.362;6.946;2022-10-19T12:30:51;16.00;99.90
4615;DHT22;2320;51.362;6.946;2022-10-19T12:33:19;16.00;99.90
4615;DHT22;2320;51.362;6.946;2022-10-19T12:35:53;15.90;99.90
4615;DHT22;2320;51.362;6.946;2022-10-19T12:43:32;16.10;99.90
4615;DHT22;2320;51.362;6.946;2022-10-19T12:46:12;16.20;99.90
4615;DHT22;2320;51.362;6.946;2022-10-19T12:48:41;16.10;99.90
4615;DHT22;2320;51.362;6.946;2022-10-19T12:51:07;16.20;99.90
4615;DHT22;2320;51.362;6.946;2022-10-19T12:53:46;16.10;99.90
4615;DHT22;2320;51.362;6.946;2022-10-19T13:01:20;16.40;99.90
4615;DHT22;2320;51.362;6.946;2022-10-19T13:03:47;16.30;99.90
4615;DHT22;2320;51.362;6.946;2022-10-19T13:06:15;16.40;99.90
4615;DHT22;2320;51.362;6.946;2022-10-19T13:09:02;16.40;99.90
4615;DHT22;2320;51.362;6.946;2022-10-19T13:11:28;16.50;99.90
4615;DHT22;2320;51.362;6.946;2022-10-19T13:13:55;16.50;99.90
4615;DHT22;2320;51.362;6.946;2022-10-19T13:24:29;16.50;99.90
4615;DHT22;2320;51.362;6.946;2022-10-19T13:34:45;16.50;99.90
4615;DHT22;2320;51.362;6.946;2022-10-19T13:37:11;16.50;99.90
4615;DHT22;2320;51.362;6.946;2022-10-19T13:39:37;16.50;99.90
4615;DHT22;2320;51.362;6.946;2022-10-19T13:42:03;16.50;99.90
4615;DHT22;2320;51.362;6.946;2022-10-19T13:44:30;16.50;99.90
4615;DHT22;2320;51.362;6.946;2022-10-19T13:47:16;16.40;99.90
4615;DHT22;2320;51.362;6.946;2022-10-19T13:49:50;16.50;99.90
4615;DHT22;2320;51.362;6.946;2022-10-19T13:57:47;16.50;99.90
4615;DHT22;2320;51.362;6.946;2022-10-19T14:02:55;16.40;99.90
4615;DHT22;2320;51.362;6.946;2022-10-19T14:08:07;16.20;99.90
4615;DHT22;2320;51.362;6.946;2022-10-19T14:10:34;16.20;99.90
4615;DHT22;2320;51.362;6.946;2022-10-19T14:13:00;16.30;99.90
4615;DHT22;2320;51.362;6.946;2022-10-19T14:15:28;16.30;99.90
4615;DHT22;2320;51.362;6.946;2022-10-19T14:17:53;16.30;99.90
4615;DHT22;2320;51.362;6.946;2022-10-19T14:22:45;16.40;99.90
4615;DHT22;2320;51.362;6.946;2022-10-19T14:27:38;16.40;99.90
4615;DHT22;2320;51.362;6.946;2022-10-19T14:30:04;16.40;99.90
4615;DHT22;2320;51.362;6.946;2022-10-19T14:32:31;16.30;99.90
4615;DHT22;2320;51.362;6.946;2022-10-19T14:34:58;16.30;99.90
4615;DHT22;2320;51.362;6.946;2022-10-19T14:37:26;16.30;99.90
4615;DHT22;2320;51.362;6.946;2022-10-19T14:40:03;16.30;99.90
4615;DHT22;2320;51.362;6.946;2022-10-19T14:42:39;16.20;99.90
4615;DHT22;2320;51.362;6.946;2022-10-19T14:45:08;16.10;99.90
4615;DHT22;2320;51.362;6.946;2022-10-19T14:47:34;16.20;99.90
4615;DHT22;2320;51.362;6.946;2022-10-19T14:50:01;16.10;99.90
4615;DHT22;2320;51.362;6.946;2022-10-19T14:52:31;16.10;99.90
4615;DHT22;2320;51.362;6.946;2022-10-19T14:55:00;16.10;99.90
4615;DHT22;2320;51.362;6.946;2022-10-19T14:57:30;16.00;99.90
4615;DHT22;2320;51.362;6.946;2022-10-19T14:59:57;16.00;99.90
4615;DHT22;2320;51.362;6.946;2022-10-19T15:02:27;15.90;99.90
4615;DHT22;2320;51.362;6.946;2022-10-19T15:04:54;16.00;99.90
4615;DHT22;2320;51.362;6.946;2022-10-19T15:07:37;15.90;99.90
4615;DHT22;2320;51.362;6.946;2022-10-19T15:10:04;15.90;99.90
4615;DHT22;2320;51.362;6.946;2022-10-19T15:12:34;15.80;99.90
4615;DHT22;2320;51.362;6.946;2022-10-19T15:15:05;15.80;99.90
4615;DHT22;2320;51.362;6.946;2022-10-19T15:17:31;15.80;99.90
4615;DHT22;2320;51.362;6.946;2022-10-19T15:19:57;15.80;99.90
4615;DHT22;2320;51.362;6.946;2022-10-19T15:25:00;15.80;99.90
4615;DHT22;2320;51.362;6.946;2022-10-19T15:27:31;15.80;99.90
4615;DHT22;2320;51.362;6.946;2022-10-19T15:29:57;15.70;99.90
4615;DHT22;2320;51.362;6.946;2022-10-19T15:32:25;15.60;99.90
4615;DHT22;2320;51.362;6.946;2022-10-19T15:34:52;15.60;99.90
4615;DHT22;2320;51.362;6.946;2022-10-19T15:37:19;15.60;99.90
4615;DHT22;2320;51.362;6.946;2022-10-19T15:39:45;15.60;99.90
4615;DHT22;2320;51.362;6.946;2022-10-19T15:42:20;15.50;99.90
4615;DHT22;2320;51.362;6.946;2022-10-19T15:44:45;15.50;99.90
4615;DHT22;2320;51.362;6.946;2022-10-19T15:47:13;15.50;99.90
4615;DHT22;2320;51.362;6.946;2022-10-19T15:49:49;15.50;99.90
4615;DHT22;2320;51.362;6.946;2022-10-19T15:52:19;15.50;99.90
4615;DHT22;2320;51.362;6.946;2022-10-19T15:54:48;15.40;99.90
4615;DHT22;2320;51.362;6.946;2022-10-19T15:57:33;15.30;99.90
4615;DHT22;2320;51.362;6.946;2022-10-19T16:00:00;15.30;99.90
4615;DHT22;2320;51.362;6.946;2022-10-19T16:02:26;15.20;99.90
4615;DHT22;2320;51.362;6.946;2022-10-19T16:04:52;15.20;99.90
4615;DHT22;2320;51.362;6.946;2022-10-19T16:07:23;15.20;99.90
4615;DHT22;2320;51.362;6.946;2022-10-19T16:09:50;15.10;99.90
4615;DHT22;2320;51.362;6.946;2022-10-19T16:12:15;15.10;99.90
4615;DHT22;2320;51.362;6.946;2022-10-19T16:14:41;15.00;99.90
4615;DHT22;2320;51.362;6.946;2022-10-19T16:17:06;15.00;99.90
4615;DHT22;2320;51.362;6.946;2022-10-19T16:19:33;14.90;99.90
4615;DHT22;2320;51.362;6.946;2022-10-19T16:21:59;14.70;99.90
4615;DHT22;2320;51.362;6.946;2022-10-19T16:24:24;14.70;99.90
4615;DHT22;2320;51.362;6.946;2022-10-19T16:26:49;14.50;99.90
4615;DHT22;2320;51.362;6.946;2022-10-19T16:29:15;14.50;99.90
4615;DHT22;2320;51.362;6.946;2022-10-19T16:31:40;14.50;99.90
4615;DHT22;2320;51.362;6.946;2022-10-19T16:34:06;14.30;99.90
4615;DHT22;2320;51.362;6.946;2022-10-19T16:36:31;14.20;99.90
4615;DHT22;2320;51.362;6.946;2022-10-19T16:38:58;14.10;99.90
4615;DHT22;2320;51.362;6.946;2022-10-19T16:41:24;14.00;99.90
4615;DHT22;2320;51.362;6.946;2022-10-19T16:43:52;13.90;99.90
4615;DHT22;2320;51.362;6.946;2022-10-19T16:46:19;13.90;99.90
4615;DHT22;2320;51.362;6.946;2022-10-19T16:48:45;13.80;99.90
4615;DHT22;2320;51.362;6.946;2022-10-19T16:53:52;13.50;99.90
4615;DHT22;2320;51.362;6.946;2022-10-19T16:56:18;13.50;99.90
4615;DHT22;2320;51.362;6.946;2022-10-19T16:58:43;13.50;99.90
4615;DHT22;2320;51.362;6.946;2022-10-19T17:01:09;13.40;99.90
4615;DHT22;2320;51.362;6.946;2022-10-19T17:03:35;13.30;99.90
4615;DHT22;2320;51.362;6.946;2022-10-19T17:06:01;13.20;99.90
4615;DHT22;2320;51.362;6.946;2022-10-19T17:08:28;13.10;99.90
4615;DHT22;2320;51.362;6.946;2022-10-19T17:10:54;13.10;99.90
4615;DHT22;2320;51.362;6.946;2022-10-19T17:13:19;13.00;99.90
4615;DHT22;2320;51.362;6.946;2022-10-19T17:15:45;12.90;99.90
4615;DHT22;2320;51.362;6.946;2022-10-19T17:18:10;12.90;99.90
4615;DHT22;2320;51.362;6.946;2022-10-19T17:20:36;12.90;99.90
4615;DHT22;2320;51.362;6.946;2022-10-19T17:23:01;12.80;99.90
4615;DHT22;2320;51.362;6.946;2022-10-19T17:25:26;12.80;99.90
4615;DHT22;2320;51.362;6.946;2022-10-19T17:27:52;12.70;99.90
4615;DHT22;2320;51.362;6.946;2022-10-19T17:30:17;12.60;99.90
4615;DHT22;2320;51.362;6.946;2022-10-19T17:32:43;12.60;99.90
4615;DHT22;2320;51.362;6.946;2022-10-19T17:35:08;12.50;99.90
4615;DHT22;2320;51.362;6.946;2022-10-19T17:37:34;12.40;99.90
4615;DHT22;2320;51.362;6.946;2022-10-19T17:40:00;12.40;99.90
4615;DHT22;2320;51.362;6.946;2022-10-19T17:42:25;12.40;99.90
4615;DHT22;2320;51.362;6.946;2022-10-19T17:44:52;12.40;99.90
4615;DHT22;2320;51.362;6.946;2022-10-19T17:47:17;12.20;99.90
4615;DHT22;2320;51.362;6.946;2022-10-19T17:49:43;12.20;99.90
4615;DHT22;2320;51.362;6.946;2022-10-19T17:52:08;12.10;99.90
4615;DHT22;2320;51.362;6.946;2022-10-19T17:54:34;12.00;99.90
4615;DHT22;2320;51.362;6.946;2022-10-19T17:56:59;12.00;99.90
4615;DHT22;2320;51.362;6.946;2022-10-19T17:59:25;12.00;99.90
4615;DHT22;2320;51.362;6.946;2022-10-19T18:01:50;12.00;99.90
4615;DHT22;2320;51.362;6.946;2022-10-19T18:04:16;12.00;99.90
4615;DHT22;2320;51.362;6.946;2022-10-19T18:06:41;12.00;99.90
4615;DHT22;2320;51.362;6.946;2022-10-19T18:09:09;11.90;99.90
4615;DHT22;2320;51.362;6.946;2022-10-19T18:11:35;11.90;99.90
4615;DHT22;2320;51.362;6.946;2022-10-19T18:14:03;12.00;99.90